首页
METAR-TAF:

METAR-TAF

机场 :

布達佩斯李斯特·費倫茨國際機場

布达佩斯, 匈牙利

纬度: 47-26N, 经度: 019-16E, 海拔: 151米

当前天气观测

该预报发布于28分钟前的12:00 UTC
风速4节,风向西转西北
温度 27°C
湿度 54%
气压 1017 hPa
能见度10公里或以上
1500米以下无云,无积雨云

METAR: LHBP 161200Z 29004KT CAVOK 27/17 Q1017 NOSIG

时间: 14:28 (12:28 UTC)

预报

该预报发布于1小时和13分钟前的11:15 UTC
预报有效从16日的 12点(UTC)到 17日的 12点(UTC)
风速8节,风向东北
能见度10公里或以上
1500米以下无云,无积雨云
短暂存在
从 16日的 12点(UTC)到 16日的 18点(UTC)
散云层高于5000英尺, 塔状积云.
散云层高于6000英尺
成为
从 16日的 17点(UTC)到 16日的 19点(UTC)
风速7节,风向
成为
从 16日的 19点(UTC)到 16日的 21点(UTC)
风速3节,风向多变

TAF: LHBP 161115Z 1612/1712 05008KT CAVOK TEMPO 1612/1618 SCT050TCU SCT060 BECMG 1617/1619 09007KT BECMG 1619/1621 VRB03KT

超过4000个机场的气象观测和天气预报(METAR&TAF报告)。

可查询的气象台以黄色和红色小点在地图上表示。

将鼠标移到小点上方,可查看气象台名称。

然后点击查看天气观测和预报。

如需切换地图:点击带黑十字的绿色按钮放大地图;点击带横线的绿色按钮缩小地图;或者点击绿色箭头查看邻近地区的地图。


METAR-TAF: